sensor_id;sensor_type;location;lat;lon;timestamp;temperature;humidity
47765;DHT22;33529;49.242;8.670;2023-06-01T00:02:24;16.70;83.90
47765;DHT22;33529;49.242;8.670;2023-06-01T00:04:51;16.70;84.20
47765;DHT22;33529;49.242;8.670;2023-06-01T00:07:18;16.70;84.10
47765;DHT22;33529;49.242;8.670;2023-06-01T00:09:50;16.70;83.90
47765;DHT22;33529;49.242;8.670;2023-06-01T00:12:17;16.80;83.60
47765;DHT22;33529;49.242;8.670;2023-06-01T00:14:44;16.80;84.00
47765;DHT22;33529;49.242;8.670;2023-06-01T00:17:11;16.70;84.20
47765;DHT22;33529;49.242;8.670;2023-06-01T00:19:38;16.80;84.30
47765;DHT22;33529;49.242;8.670;2023-06-01T00:22:09;16.70;84.10
47765;DHT22;33529;49.242;8.670;2023-06-01T00:24:36;16.70;84.50
47765;DHT22;33529;49.242;8.670;2023-06-01T00:27:03;16.70;85.00
47765;DHT22;33529;49.242;8.670;2023-06-01T00:29:32;16.60;85.10
47765;DHT22;33529;49.242;8.670;2023-06-01T00:31:58;16.60;85.00
47765;DHT22;33529;49.242;8.670;2023-06-01T00:34:26;16.60;84.90
47765;DHT22;33529;49.242;8.670;2023-06-01T00:36:53;16.60;85.00
47765;DHT22;33529;49.242;8.670;2023-06-01T00:39:20;16.60;85.00
47765;DHT22;33529;49.242;8.670;2023-06-01T00:41:47;16.60;85.50
47765;DHT22;33529;49.242;8.670;2023-06-01T00:44:14;16.60;85.40
47765;DHT22;33529;49.242;8.670;2023-06-01T00:46:41;16.60;85.70
47765;DHT22;33529;49.242;8.670;2023-06-01T00:49:08;16.60;85.90
47765;DHT22;33529;49.242;8.670;2023-06-01T00:51:35;16.60;85.60
47765;DHT22;33529;49.242;8.670;2023-06-01T00:54:02;16.60;85.90
47765;DHT22;33529;49.242;8.670;2023-06-01T00:56:30;16.50;86.20
47765;DHT22;33529;49.242;8.670;2023-06-01T00:58:59;16.50;86.50
47765;DHT22;33529;49.242;8.670;2023-06-01T01:01:26;16.50;86.30
47765;DHT22;33529;49.242;8.670;2023-06-01T01:03:53;16.50;86.50
47765;DHT22;33529;49.242;8.670;2023-06-01T01:06:45;16.50;86.70
47765;DHT22;33529;49.242;8.670;2023-06-01T01:09:23;16.50;86.60
47765;DHT22;33529;49.242;8.670;2023-06-01T01:12:17;16.40;86.70
47765;DHT22;33529;49.242;8.670;2023-06-01T01:14:55;16.40;86.90
47765;DHT22;33529;49.242;8.670;2023-06-01T01:17:34;16.40;87.80
47765;DHT22;33529;49.242;8.670;2023-06-01T01:20:22;16.30;87.60
47765;DHT22;33529;49.242;8.670;2023-06-01T01:30:35;16.20;88.50
47765;DHT22;33529;49.242;8.670;2023-06-01T01:33:03;16.10;89.20
47765;DHT22;33529;49.242;8.670;2023-06-01T01:35:30;16.10;89.50
47765;DHT22;33529;49.242;8.670;2023-06-01T01:37:58;16.20;88.60
47765;DHT22;33529;49.242;8.670;2023-06-01T01:40:26;16.10;88.80
47765;DHT22;33529;49.242;8.670;2023-06-01T01:42:53;16.10;89.30
47765;DHT22;33529;49.242;8.670;2023-06-01T01:45:20;16.10;89.40
47765;DHT22;33529;49.242;8.670;2023-06-01T01:48:05;16.10;89.60
47765;DHT22;33529;49.242;8.670;2023-06-01T01:50:41;16.10;89.80
47765;DHT22;33529;49.242;8.670;2023-06-01T01:53:13;16.00;90.10
47765;DHT22;33529;49.242;8.670;2023-06-01T01:55:41;16.00;90.20
47765;DHT22;33529;49.242;8.670;2023-06-01T01:58:09;16.00;90.10
47765;DHT22;33529;49.242;8.670;2023-06-01T02:00:37;16.00;90.20
47765;DHT22;33529;49.242;8.670;2023-06-01T02:03:04;15.90;90.20
47765;DHT22;33529;49.242;8.670;2023-06-01T02:05:39;15.90;90.40
47765;DHT22;33529;49.242;8.670;2023-06-01T02:08:06;15.90;91.20
47765;DHT22;33529;49.242;8.670;2023-06-01T02:10:34;15.80;91.40
47765;DHT22;33529;49.242;8.670;2023-06-01T02:13:01;15.60;91.70
47765;DHT22;33529;49.242;8.670;2023-06-01T02:15:28;15.60;91.70
47765;DHT22;33529;49.242;8.670;2023-06-01T02:17:56;15.40;91.90
47765;DHT22;33529;49.242;8.670;2023-06-01T02:20:23;15.30;92.10
47765;DHT22;33529;49.242;8.670;2023-06-01T02:22:50;15.30;91.80
47765;DHT22;33529;49.242;8.670;2023-06-01T02:25:17;15.40;92.60
47765;DHT22;33529;49.242;8.670;2023-06-01T02:27:46;15.30;92.50
47765;DHT22;33529;49.242;8.670;2023-06-01T02:30:13;15.20;93.20
47765;DHT22;33529;49.242;8.670;2023-06-01T02:32:41;15.10;93.60
47765;DHT22;33529;49.242;8.670;2023-06-01T02:35:12;15.00;94.50
47765;DHT22;33529;49.242;8.670;2023-06-01T02:37:40;14.90;94.30
47765;DHT22;33529;49.242;8.670;2023-06-01T02:40:07;14.90;95.30
47765;DHT22;33529;49.242;8.670;2023-06-01T02:42:39;14.80;95.20
47765;DHT22;33529;49.242;8.670;2023-06-01T02:45:07;14.80;95.00
47765;DHT22;33529;49.242;8.670;2023-06-01T02:47:35;14.80;96.40
47765;DHT22;33529;49.242;8.670;2023-06-01T02:50:02;14.70;96.50
47765;DHT22;33529;49.242;8.670;2023-06-01T02:52:33;14.60;98.20
47765;DHT22;33529;49.242;8.670;2023-06-01T02:55:01;14.50;97.80
47765;DHT22;33529;49.242;8.670;2023-06-01T02:57:45;14.30;98.40
47765;DHT22;33529;49.242;8.670;2023-06-01T03:00:12;14.20;99.00
47765;DHT22;33529;49.242;8.670;2023-06-01T03:02:45;14.10;99.90
47765;DHT22;33529;49.242;8.670;2023-06-01T03:05:13;14.10;99.90
47765;DHT22;33529;49.242;8.670;2023-06-01T03:07:48;14.10;99.90
47765;DHT22;33529;49.242;8.670;2023-06-01T03:10:24;14.10;99.90
47765;DHT22;33529;49.242;8.670;2023-06-01T03:13:07;14.00;99.90
47765;DHT22;33529;49.242;8.670;2023-06-01T03:15:34;14.00;99.90
47765;DHT22;33529;49.242;8.670;2023-06-01T03:18:01;13.90;99.90
47765;DHT22;33529;49.242;8.670;2023-06-01T03:20:28;13.80;99.90
47765;DHT22;33529;49.242;8.670;2023-06-01T03:22:55;13.80;99.90
47765;DHT22;33529;49.242;8.670;2023-06-01T03:25:22;13.70;99.90
47765;DHT22;33529;49.242;8.670;2023-06-01T03:27:51;13.60;99.90
47765;DHT22;33529;49.242;8.670;2023-06-01T03:30:18;13.60;99.90
47765;DHT22;33529;49.242;8.670;2023-06-01T03:32:45;13.50;99.90
47765;DHT22;33529;49.242;8.670;2023-06-01T03:35:12;13.50;99.90
47765;DHT22;33529;49.242;8.670;2023-06-01T03:37:42;13.40;99.90
47765;DHT22;33529;49.242;8.670;2023-06-01T03:40:10;13.30;99.90
47765;DHT22;33529;49.242;8.670;2023-06-01T03:42:42;13.30;99.90
47765;DHT22;33529;49.242;8.670;2023-06-01T03:45:09;13.20;99.90
47765;DHT22;33529;49.242;8.670;2023-06-01T03:47:39;13.10;99.90
47765;DHT22;33529;49.242;8.670;2023-06-01T03:50:08;12.90;99.90
47765;DHT22;33529;49.242;8.670;2023-06-01T03:52:35;12.90;99.90
47765;DHT22;33529;49.242;8.670;2023-06-01T03:55:04;12.90;99.90
47765;DHT22;33529;49.242;8.670;2023-06-01T03:57:53;12.90;99.90
47765;DHT22;33529;49.242;8.670;2023-06-01T04:00:21;12.80;99.90
47765;DHT22;33529;49.242;8.670;2023-06-01T04:02:57;12.80;99.90
47765;DHT22;33529;49.242;8.670;2023-06-01T04:05:26;12.70;99.90
47765;DHT22;33529;49.242;8.670;2023-06-01T04:07:54;12.70;99.90
47765;DHT22;33529;49.242;8.670;2023-06-01T04:10:22;12.50;99.90
47765;DHT22;33529;49.242;8.670;2023-06-01T04:12:50;12.40;99.90
47765;DHT22;33529;49.242;8.670;2023-06-01T04:15:23;12.40;99.90
47765;DHT22;33529;49.242;8.670;2023-06-01T04:17:50;12.30;99.90
47765;DHT22;33529;49.242;8.670;2023-06-01T04:20:17;12.40;99.90
47765;DHT22;33529;49.242;8.670;2023-06-01T04:22:45;12.40;99.90
47765;DHT22;33529;49.242;8.670;2023-06-01T04:25:14;12.50;99.90
47765;DHT22;33529;49.242;8.670;2023-06-01T04:27:48;12.60;99.90
47765;DHT22;33529;49.242;8.670;2023-06-01T04:30:15;12.70;99.90
47765;DHT22;33529;49.242;8.670;2023-06-01T04:32:44;12.70;99.90
47765;DHT22;33529;49.242;8.670;2023-06-01T04:35:13;12.80;99.90
47765;DHT22;33529;49.242;8.670;2023-06-01T04:37:41;12.80;99.90
47765;DHT22;33529;49.242;8.670;2023-06-01T04:40:11;12.80;99.90
47765;DHT22;33529;49.242;8.670;2023-06-01T04:42:42;12.80;99.90
47765;DHT22;33529;49.242;8.670;2023-06-01T04:45:12;12.80;99.90
47765;DHT22;33529;49.242;8.670;2023-06-01T04:47:40;12.90;99.90
47765;DHT22;33529;49.242;8.670;2023-06-01T04:50:13;13.00;99.90
47765;DHT22;33529;49.242;8.670;2023-06-01T04:52:44;13.00;99.90
47765;DHT22;33529;49.242;8.670;2023-06-01T04:55:11;13.00;99.90
47765;DHT22;33529;49.242;8.670;2023-06-01T04:57:41;13.20;99.90
47765;DHT22;33529;49.242;8.670;2023-06-01T05:00:14;13.20;99.90
47765;DHT22;33529;49.242;8.670;2023-06-01T05:02:46;13.40;99.90
47765;DHT22;33529;49.242;8.670;2023-06-01T05:05:15;13.50;99.90
47765;DHT22;33529;49.242;8.670;2023-06-01T05:07:44;13.70;99.90
47765;DHT22;33529;49.242;8.670;2023-06-01T05:10:13;13.80;99.90
47765;DHT22;33529;49.242;8.670;2023-06-01T05:12:47;14.00;99.90
47765;DHT22;33529;49.242;8.670;2023-06-01T05:15:16;14.10;99.90
47765;DHT22;33529;49.242;8.670;2023-06-01T05:17:45;14.40;99.90
47765;DHT22;33529;49.242;8.670;2023-06-01T05:20:18;14.60;99.90
47765;DHT22;33529;49.242;8.670;2023-06-01T05:22:51;14.80;99.90
47765;DHT22;33529;49.242;8.670;2023-06-01T05:25:19;14.90;99.90
47765;DHT22;33529;49.242;8.670;2023-06-01T05:27:46;15.10;99.90
47765;DHT22;33529;49.242;8.670;2023-06-01T05:30:13;15.30;99.90
47765;DHT22;33529;49.242;8.670;2023-06-01T05:32:42;15.60;99.90
47765;DHT22;33529;49.242;8.670;2023-06-01T05:35:13;15.90;99.90
47765;DHT22;33529;49.242;8.670;2023-06-01T05:37:40;16.20;99.90
47765;DHT22;33529;49.242;8.670;2023-06-01T05:40:08;16.10;99.90
47765;DHT22;33529;49.242;8.670;2023-06-01T05:42:36;16.20;99.90
47765;DHT22;33529;49.242;8.670;2023-06-01T05:45:04;16.30;99.90
47765;DHT22;33529;49.242;8.670;2023-06-01T05:47:31;16.50;99.90
47765;DHT22;33529;49.242;8.670;2023-06-01T05:49:58;16.80;99.90
47765;DHT22;33529;49.242;8.670;2023-06-01T05:52:25;16.90;99.90
47765;DHT22;33529;49.242;8.670;2023-06-01T05:54:52;17.00;99.90
47765;DHT22;33529;49.242;8.670;2023-06-01T05:57:20;17.20;99.90
47765;DHT22;33529;49.242;8.670;2023-06-01T05:59:47;17.20;99.90
47765;DHT22;33529;49.242;8.670;2023-06-01T06:02:14;17.30;99.90
47765;DHT22;33529;49.242;8.670;2023-06-01T06:04:41;17.40;99.90
47765;DHT22;33529;49.242;8.670;2023-06-01T06:07:08;17.50;99.90
47765;DHT22;33529;49.242;8.670;2023-06-01T06:09:35;17.50;99.90
47765;DHT22;33529;49.242;8.670;2023-06-01T06:12:02;17.70;99.90
47765;DHT22;33529;49.242;8.670;2023-06-01T06:14:29;17.90;99.90
47765;DHT22;33529;49.242;8.670;2023-06-01T06:16:56;18.00;99.90
47765;DHT22;33529;49.242;8.670;2023-06-01T06:19:23;18.10;99.90
47765;DHT22;33529;49.242;8.670;2023-06-01T06:21:50;18.10;99.90
47765;DHT22;33529;49.242;8.670;2023-06-01T06:24:18;18.30;99.90
47765;DHT22;33529;49.242;8.670;2023-06-01T06:26:47;18.40;99.50
47765;DHT22;33529;49.242;8.670;2023-06-01T06:29:14;18.60;99.90
47765;DHT22;33529;49.242;8.670;2023-06-01T06:31:41;18.90;99.20
47765;DHT22;33529;49.242;8.670;2023-06-01T06:34:11;19.10;97.90
47765;DHT22;33529;49.242;8.670;2023-06-01T06:36:38;19.20;97.20
47765;DHT22;33529;49.242;8.670;2023-06-01T06:39:05;19.30;96.90
47765;DHT22;33529;49.242;8.670;2023-06-01T06:41:32;19.40;96.90
47765;DHT22;33529;49.242;8.670;2023-06-01T06:43:59;19.50;97.50
47765;DHT22;33529;49.242;8.670;2023-06-01T06:46:26;19.60;96.40
47765;DHT22;33529;49.242;8.670;2023-06-01T06:48:53;19.70;96.50
47765;DHT22;33529;49.242;8.670;2023-06-01T06:51:19;19.60;96.60
47765;DHT22;33529;49.242;8.670;2023-06-01T06:53:47;19.70;95.70
47765;DHT22;33529;49.242;8.670;2023-06-01T06:56:14;19.80;96.70
47765;DHT22;33529;49.242;8.670;2023-06-01T06:58:41;19.90;96.30
47765;DHT22;33529;49.242;8.670;2023-06-01T07:01:15;20.20;95.60
47765;DHT22;33529;49.242;8.670;2023-06-01T07:03:42;20.40;95.80
47765;DHT22;33529;49.242;8.670;2023-06-01T07:06:09;20.60;96.90
47765;DHT22;33529;49.242;8.670;2023-06-01T07:08:36;20.80;95.30
47765;DHT22;33529;49.242;8.670;2023-06-01T07:11:05;21.00;95.20
47765;DHT22;33529;49.242;8.670;2023-06-01T07:13:32;21.40;96.80
47765;DHT22;33529;49.242;8.670;2023-06-01T07:16:00;21.60;96.30
47765;DHT22;33529;49.242;8.670;2023-06-01T07:18:27;21.90;94.40
47765;DHT22;33529;49.242;8.670;2023-06-01T07:20:54;22.20;93.20
47765;DHT22;33529;49.242;8.670;2023-06-01T07:23:20;22.30;93.90
47765;DHT22;33529;49.242;8.670;2023-06-01T07:25:47;22.30;90.70
47765;DHT22;33529;49.242;8.670;2023-06-01T07:28:14;22.30;87.30
47765;DHT22;33529;49.242;8.670;2023-06-01T07:30:41;22.30;86.60
47765;DHT22;33529;49.242;8.670;2023-06-01T07:33:08;22.40;87.30
47765;DHT22;33529;49.242;8.670;2023-06-01T07:35:35;22.50;88.00
47765;DHT22;33529;49.242;8.670;2023-06-01T07:38:02;22.30;87.50
47765;DHT22;33529;49.242;8.670;2023-06-01T07:40:30;22.20;87.10
47765;DHT22;33529;49.242;8.670;2023-06-01T07:42:57;22.10;88.20
47765;DHT22;33529;49.242;8.670;2023-06-01T07:45:24;22.00;88.00
47765;DHT22;33529;49.242;8.670;2023-06-01T07:47:51;21.90;86.80
47765;DHT22;33529;49.242;8.670;2023-06-01T07:50:18;21.80;88.40
47765;DHT22;33529;49.242;8.670;2023-06-01T07:52:45;21.90;88.30
47765;DHT22;33529;49.242;8.670;2023-06-01T07:55:12;22.10;87.10
47765;DHT22;33529;49.242;8.670;2023-06-01T07:57:41;22.40;86.90
47765;DHT22;33529;49.242;8.670;2023-06-01T08:00:09;22.40;85.70
47765;DHT22;33529;49.242;8.670;2023-06-01T08:02:39;22.20;84.60
47765;DHT22;33529;49.242;8.670;2023-06-01T08:05:07;22.20;89.50
47765;DHT22;33529;49.242;8.670;2023-06-01T08:07:34;22.30;89.20
47765;DHT22;33529;49.242;8.670;2023-06-01T08:10:02;22.40;85.00
47765;DHT22;33529;49.242;8.670;2023-06-01T08:12:29;22.60;86.90
47765;DHT22;33529;49.242;8.670;2023-06-01T08:14:56;22.60;85.50
47765;DHT22;33529;49.242;8.670;2023-06-01T08:17:24;22.60;85.20
47765;DHT22;33529;49.242;8.670;2023-06-01T08:19:51;22.60;83.60
47765;DHT22;33529;49.242;8.670;2023-06-01T08:22:20;22.60;85.20
47765;DHT22;33529;49.242;8.670;2023-06-01T08:24:47;22.60;82.40
47765;DHT22;33529;49.242;8.670;2023-06-01T08:27:21;22.60;85.00
47765;DHT22;33529;49.242;8.670;2023-06-01T08:29:52;22.80;84.80
47765;DHT22;33529;49.242;8.670;2023-06-01T08:32:21;22.80;84.50
47765;DHT22;33529;49.242;8.670;2023-06-01T08:34:48;22.80;83.00
47765;DHT22;33529;49.242;8.670;2023-06-01T08:37:15;22.70;85.40
47765;DHT22;33529;49.242;8.670;2023-06-01T08:39:42;23.00;85.90
47765;DHT22;33529;49.242;8.670;2023-06-01T08:44:47;23.30;83.90
47765;DHT22;33529;49.242;8.670;2023-06-01T08:47:18;23.60;81.30
47765;DHT22;33529;49.242;8.670;2023-06-01T08:49:45;23.70;81.00
47765;DHT22;33529;49.242;8.670;2023-06-01T08:52:13;23.80;80.50
47765;DHT22;33529;49.242;8.670;2023-06-01T08:54:40;23.90;81.20
47765;DHT22;33529;49.242;8.670;2023-06-01T08:57:08;24.00;80.10
47765;DHT22;33529;49.242;8.670;2023-06-01T08:59:36;23.80;83.50
47765;DHT22;33529;49.242;8.670;2023-06-01T09:02:03;24.00;83.00
47765;DHT22;33529;49.242;8.670;2023-06-01T09:04:31;24.00;80.60
47765;DHT22;33529;49.242;8.670;2023-06-01T09:06:58;24.20;79.80
47765;DHT22;33529;49.242;8.670;2023-06-01T09:09:25;24.20;82.30
47765;DHT22;33529;49.242;8.670;2023-06-01T09:12:21;24.20;79.30
47765;DHT22;33529;49.242;8.670;2023-06-01T09:14:48;24.30;80.00
47765;DHT22;33529;49.242;8.670;2023-06-01T09:17:22;24.30;79.40
47765;DHT22;33529;49.242;8.670;2023-06-01T09:19:55;24.50;80.20
47765;DHT22;33529;49.242;8.670;2023-06-01T09:22:23;24.50;79.90
47765;DHT22;33529;49.242;8.670;2023-06-01T09:24:59;24.60;79.80
47765;DHT22;33529;49.242;8.670;2023-06-01T09:27:27;24.60;79.00
47765;DHT22;33529;49.242;8.670;2023-06-01T09:29:57;24.60;77.00
47765;DHT22;33529;49.242;8.670;2023-06-01T09:32:27;24.60;78.80
47765;DHT22;33529;49.242;8.670;2023-06-01T09:34:54;24.40;78.90
47765;DHT22;33529;49.242;8.670;2023-06-01T09:37:21;24.30;79.50
47765;DHT22;33529;49.242;8.670;2023-06-01T09:39:48;24.50;80.50
47765;DHT22;33529;49.242;8.670;2023-06-01T09:42:15;24.80;79.00
47765;DHT22;33529;49.242;8.670;2023-06-01T09:44:43;24.90;75.90
47765;DHT22;33529;49.242;8.670;2023-06-01T09:47:11;24.90;76.70
47765;DHT22;33529;49.242;8.670;2023-06-01T09:49:44;24.90;77.40
47765;DHT22;33529;49.242;8.670;2023-06-01T09:52:12;24.90;74.60
47765;DHT22;33529;49.242;8.670;2023-06-01T09:54:47;25.00;73.60
47765;DHT22;33529;49.242;8.670;2023-06-01T09:57:26;25.30;73.70
47765;DHT22;33529;49.242;8.670;2023-06-01T09:59:55;25.50;72.80
47765;DHT22;33529;49.242;8.670;2023-06-01T10:02:23;25.50;72.80
47765;DHT22;33529;49.242;8.670;2023-06-01T10:04:53;25.50;71.30
47765;DHT22;33529;49.242;8.670;2023-06-01T10:07:22;25.50;70.50
47765;DHT22;33529;49.242;8.670;2023-06-01T10:09:58;25.80;71.10
47765;DHT22;33529;49.242;8.670;2023-06-01T10:12:25;26.00;71.00
47765;DHT22;33529;49.242;8.670;2023-06-01T10:14:52;26.20;69.60
47765;DHT22;33529;49.242;8.670;2023-06-01T10:17:20;26.30;69.30
47765;DHT22;33529;49.242;8.670;2023-06-01T10:19:47;26.10;67.40
47765;DHT22;33529;49.242;8.670;2023-06-01T10:22:14;26.30;69.40
47765;DHT22;33529;49.242;8.670;2023-06-01T10:24:43;26.40;69.70
47765;DHT22;33529;49.242;8.670;2023-06-01T10:29:49;26.50;69.90
47765;DHT22;33529;49.242;8.670;2023-06-01T10:35:10;26.30;67.10
47765;DHT22;33529;49.242;8.670;2023-06-01T10:40:34;26.40;70.00
47765;DHT22;33529;49.242;8.670;2023-06-01T10:43:01;26.20;68.20
47765;DHT22;33529;49.242;8.670;2023-06-01T10:48:08;26.50;68.60
47765;DHT22;33529;49.242;8.670;2023-06-01T10:50:39;26.70;67.50
47765;DHT22;33529;49.242;8.670;2023-06-01T10:58:43;26.60;67.80
47765;DHT22;33529;49.242;8.670;2023-06-01T11:01:18;26.70;68.50
47765;DHT22;33529;49.242;8.670;2023-06-01T11:03:47;26.70;67.60
47765;DHT22;33529;49.242;8.670;2023-06-01T11:08:55;27.00;65.30
47765;DHT22;33529;49.242;8.670;2023-06-01T11:14:15;26.50;66.00
47765;DHT22;33529;49.242;8.670;2023-06-01T11:16:42;26.40;66.90
47765;DHT22;33529;49.242;8.670;2023-06-01T11:19:09;26.40;66.30
47765;DHT22;33529;49.242;8.670;2023-06-01T11:21:41;26.50;68.80
47765;DHT22;33529;49.242;8.670;2023-06-01T11:24:17;26.50;66.40
47765;DHT22;33529;49.242;8.670;2023-06-01T11:26:46;26.40;69.10
47765;DHT22;33529;49.242;8.670;2023-06-01T11:29:21;26.50;67.90
47765;DHT22;33529;49.242;8.670;2023-06-01T11:31:56;26.70;68.10
47765;DHT22;33529;49.242;8.670;2023-06-01T11:34:36;26.60;67.30
47765;DHT22;33529;49.242;8.670;2023-06-01T11:37:19;26.60;67.70
47765;DHT22;33529;49.242;8.670;2023-06-01T11:39:46;26.60;66.80
47765;DHT22;33529;49.242;8.670;2023-06-01T11:42:18;26.90;66.40
47765;DHT22;33529;49.242;8.670;2023-06-01T11:44:56;27.20;67.90
47765;DHT22;33529;49.242;8.670;2023-06-01T11:47:28;27.30;65.80
47765;DHT22;33529;49.242;8.670;2023-06-01T11:49:55;27.10;66.50
47765;DHT22;33529;49.242;8.670;2023-06-01T11:52:22;27.20;65.20
47765;DHT22;33529;49.242;8.670;2023-06-01T11:54:49;27.30;66.80
47765;DHT22;33529;49.242;8.670;2023-06-01T11:57:18;27.30;66.20
47765;DHT22;33529;49.242;8.670;2023-06-01T11:59:48;27.10;66.40
47765;DHT22;33529;49.242;8.670;2023-06-01T12:02:27;27.10;65.50
47765;DHT22;33529;49.242;8.670;2023-06-01T12:04:57;27.20;65.80
47765;DHT22;33529;49.242;8.670;2023-06-01T12:07:26;27.30;65.50
47765;DHT22;33529;49.242;8.670;2023-06-01T12:09:53;27.30;65.50
47765;DHT22;33529;49.242;8.670;2023-06-01T12:12:24;27.10;64.80
47765;DHT22;33529;49.242;8.670;2023-06-01T12:14:51;27.10;65.80
47765;DHT22;33529;49.242;8.670;2023-06-01T12:17:22;27.10;65.00
47765;DHT22;33529;49.242;8.670;2023-06-01T12:19:50;27.30;65.80
47765;DHT22;33529;49.242;8.670;2023-06-01T12:22:17;27.40;65.30
47765;DHT22;33529;49.242;8.670;2023-06-01T12:24:44;27.50;64.90
47765;DHT22;33529;49.242;8.670;2023-06-01T12:27:17;27.60;65.30
47765;DHT22;33529;49.242;8.670;2023-06-01T12:29:47;27.70;65.50
47765;DHT22;33529;49.242;8.670;2023-06-01T12:32:14;27.90;67.40
47765;DHT22;33529;49.242;8.670;2023-06-01T12:35:03;27.80;66.40
47765;DHT22;33529;49.242;8.670;2023-06-01T12:37:30;27.90;65.40
47765;DHT22;33529;49.242;8.670;2023-06-01T12:39:57;28.10;65.70
47765;DHT22;33529;49.242;8.670;2023-06-01T12:42:40;28.20;64.60
47765;DHT22;33529;49.242;8.670;2023-06-01T12:45:10;27.90;63.10
47765;DHT22;33529;49.242;8.670;2023-06-01T12:47:38;27.80;65.40
47765;DHT22;33529;49.242;8.670;2023-06-01T12:50:10;27.70;64.50
47765;DHT22;33529;49.242;8.670;2023-06-01T12:52:39;27.80;64.40
47765;DHT22;33529;49.242;8.670;2023-06-01T12:55:06;27.80;64.20
47765;DHT22;33529;49.242;8.670;2023-06-01T12:57:36;27.90;62.70
47765;DHT22;33529;49.242;8.670;2023-06-01T13:00:06;27.80;63.30
47765;DHT22;33529;49.242;8.670;2023-06-01T13:02:34;27.80;62.60
47765;DHT22;33529;49.242;8.670;2023-06-01T13:05:03;27.70;63.70
47765;DHT22;33529;49.242;8.670;2023-06-01T13:07:32;27.70;65.30
47765;DHT22;33529;49.242;8.670;2023-06-01T13:09:59;27.90;63.80
47765;DHT22;33529;49.242;8.670;2023-06-01T13:12:26;28.10;64.50
47765;DHT22;33529;49.242;8.670;2023-06-01T13:14:56;28.20;63.60
47765;DHT22;33529;49.242;8.670;2023-06-01T13:17:24;28.20;63.70
47765;DHT22;33529;49.242;8.670;2023-06-01T13:19:53;28.30;64.00
47765;DHT22;33529;49.242;8.670;2023-06-01T13:22:20;28.30;62.70
47765;DHT22;33529;49.242;8.670;2023-06-01T13:24:47;28.10;63.80
47765;DHT22;33529;49.242;8.670;2023-06-01T13:27:31;28.10;64.60
47765;DHT22;33529;49.242;8.670;2023-06-01T13:29:58;28.10;63.80
47765;DHT22;33529;49.242;8.670;2023-06-01T13:32:25;28.20;64.90
47765;DHT22;33529;49.242;8.670;2023-06-01T13:34:52;28.10;63.40
47765;DHT22;33529;49.242;8.670;2023-06-01T13:37:19;28.10;64.20
47765;DHT22;33529;49.242;8.670;2023-06-01T13:39:49;28.40;63.00
47765;DHT22;33529;49.242;8.670;2023-06-01T13:42:18;28.60;64.20
47765;DHT22;33529;49.242;8.670;2023-06-01T13:44:47;29.10;65.00
47765;DHT22;33529;49.242;8.670;2023-06-01T13:47:15;29.30;64.20
47765;DHT22;33529;49.242;8.670;2023-06-01T13:49:42;29.40;60.80
47765;DHT22;33529;49.242;8.670;2023-06-01T13:52:10;29.20;61.40
47765;DHT22;33529;49.242;8.670;2023-06-01T13:54:37;29.00;61.00
47765;DHT22;33529;49.242;8.670;2023-06-01T13:57:04;29.10;60.70
47765;DHT22;33529;49.242;8.670;2023-06-01T13:59:32;29.30;62.20
47765;DHT22;33529;49.242;8.670;2023-06-01T14:02:02;29.70;61.00
47765;DHT22;33529;49.242;8.670;2023-06-01T14:04:30;29.90;61.90
47765;DHT22;33529;49.242;8.670;2023-06-01T14:06:57;30.40;62.80
47765;DHT22;33529;49.242;8.670;2023-06-01T14:09:24;31.30;60.40
47765;DHT22;33529;49.242;8.670;2023-06-01T14:11:51;32.70;61.90
47765;DHT22;33529;49.242;8.670;2023-06-01T14:14:18;33.30;59.80
47765;DHT22;33529;49.242;8.670;2023-06-01T14:16:44;33.90;57.70
47765;DHT22;33529;49.242;8.670;2023-06-01T14:19:12;34.40;55.60
47765;DHT22;33529;49.242;8.670;2023-06-01T14:21:39;35.00;55.80
47765;DHT22;33529;49.242;8.670;2023-06-01T14:24:07;35.60;53.90
47765;DHT22;33529;49.242;8.670;2023-06-01T14:26:33;35.80;53.20
47765;DHT22;33529;49.242;8.670;2023-06-01T14:29:00;35.80;55.50
47765;DHT22;33529;49.242;8.670;2023-06-01T14:31:27;36.40;53.80
47765;DHT22;33529;49.242;8.670;2023-06-01T14:33:54;36.00;53.00
47765;DHT22;33529;49.242;8.670;2023-06-01T14:36:22;35.80;55.70
47765;DHT22;33529;49.242;8.670;2023-06-01T14:39:07;36.80;51.60
47765;DHT22;33529;49.242;8.670;2023-06-01T14:41:34;36.20;51.10
47765;DHT22;33529;49.242;8.670;2023-06-01T14:44:01;36.20;52.80
47765;DHT22;33529;49.242;8.670;2023-06-01T14:46:28;35.90;51.40
47765;DHT22;33529;49.242;8.670;2023-06-01T14:48:55;35.80;51.80
47765;DHT22;33529;49.242;8.670;2023-06-01T14:51:21;36.30;51.00
47765;DHT22;33529;49.242;8.670;2023-06-01T14:53:48;37.10;51.60
47765;DHT22;33529;49.242;8.670;2023-06-01T14:56:15;38.00;49.70
47765;DHT22;33529;49.242;8.670;2023-06-01T14:58:42;37.80;49.40
47765;DHT22;33529;49.242;8.670;2023-06-01T15:01:09;37.80;48.90
47765;DHT22;33529;49.242;8.670;2023-06-01T15:03:38;37.50;49.10
47765;DHT22;33529;49.242;8.670;2023-06-01T15:06:05;38.00;50.10
47765;DHT22;33529;49.242;8.670;2023-06-01T15:08:33;38.50;49.00
47765;DHT22;33529;49.242;8.670;2023-06-01T15:10:59;38.50;49.20
47765;DHT22;33529;49.242;8.670;2023-06-01T15:13:26;39.20;47.80
47765;DHT22;33529;49.242;8.670;2023-06-01T15:15:53;40.10;48.40
47765;DHT22;33529;49.242;8.670;2023-06-01T15:18:20;40.60;49.00
47765;DHT22;33529;49.242;8.670;2023-06-01T15:20:47;40.30;46.70
47765;DHT22;33529;49.242;8.670;2023-06-01T15:23:16;39.60;46.50
47765;DHT22;33529;49.242;8.670;2023-06-01T15:25:43;39.00;47.10
47765;DHT22;33529;49.242;8.670;2023-06-01T15:28:09;38.40;47.70
47765;DHT22;33529;49.242;8.670;2023-06-01T15:30:36;38.80;47.00
47765;DHT22;33529;49.242;8.670;2023-06-01T15:33:03;39.20;47.70
47765;DHT22;33529;49.242;8.670;2023-06-01T15:35:34;38.40;47.00
47765;DHT22;33529;49.242;8.670;2023-06-01T15:38:02;38.00;47.50
47765;DHT22;33529;49.242;8.670;2023-06-01T15:40:29;37.20;47.30
47765;DHT22;33529;49.242;8.670;2023-06-01T15:42:55;37.20;47.60
47765;DHT22;33529;49.242;8.670;2023-06-01T15:45:22;37.60;47.80
47765;DHT22;33529;49.242;8.670;2023-06-01T15:47:49;38.40;46.70
47765;DHT22;33529;49.242;8.670;2023-06-01T15:50:16;38.90;46.70
47765;DHT22;33529;49.242;8.670;2023-06-01T15:52:43;39.30;46.00
47765;DHT22;33529;49.242;8.670;2023-06-01T15:55:10;38.90;46.50
47765;DHT22;33529;49.242;8.670;2023-06-01T15:57:37;39.00;47.90
47765;DHT22;33529;49.242;8.670;2023-06-01T16:00:04;39.50;46.40
47765;DHT22;33529;49.242;8.670;2023-06-01T16:02:36;39.60;46.60
47765;DHT22;33529;49.242;8.670;2023-06-01T16:05:07;38.60;47.00
47765;DHT22;33529;49.242;8.670;2023-06-01T16:07:34;38.50;47.20
47765;DHT22;33529;49.242;8.670;2023-06-01T16:10:01;36.90;47.40
47765;DHT22;33529;49.242;8.670;2023-06-01T16:12:29;35.90;48.90
47765;DHT22;33529;49.242;8.670;2023-06-01T16:14:56;34.60;48.40